sensor_id;sensor_type;location;lat;lon;timestamp;P1;durP1;ratioP1;P2;durP2;ratioP2
20966;SDS011;10642;50.682;18.510;2023-04-24T00:01:07;11.73;;;7.57;;
20966;SDS011;10642;50.682;18.510;2023-04-24T00:03:35;11.50;;;7.90;;
20966;SDS011;10642;50.682;18.510;2023-04-24T00:06:04;13.00;;;8.37;;
20966;SDS011;10642;50.682;18.510;2023-04-24T00:08:31;10.57;;;7.37;;
20966;SDS011;10642;50.682;18.510;2023-04-24T00:10:58;11.87;;;7.43;;
20966;SDS011;10642;50.682;18.510;2023-04-24T00:13:25;13.90;;;7.70;;
20966;SDS011;10642;50.682;18.510;2023-04-24T00:15:55;12.47;;;8.07;;
20966;SDS011;10642;50.682;18.510;2023-04-24T00:18:22;11.57;;;7.30;;
20966;SDS011;10642;50.682;18.510;2023-04-24T00:20:49;12.10;;;7.97;;
20966;SDS011;10642;50.682;18.510;2023-04-24T00:23:15;14.83;;;7.67;;
20966;SDS011;10642;50.682;18.510;2023-04-24T00:25:42;10.87;;;7.90;;
20966;SDS011;10642;50.682;18.510;2023-04-24T00:28:09;12.50;;;8.10;;
20966;SDS011;10642;50.682;18.510;2023-04-24T00:30:36;14.63;;;9.17;;
20966;SDS011;10642;50.682;18.510;2023-04-24T00:33:03;14.27;;;8.70;;
20966;SDS011;10642;50.682;18.510;2023-04-24T00:35:30;11.70;;;8.17;;
20966;SDS011;10642;50.682;18.510;2023-04-24T00:37:57;12.70;;;8.57;;
20966;SDS011;10642;50.682;18.510;2023-04-24T00:40:24;14.77;;;8.40;;
20966;SDS011;10642;50.682;18.510;2023-04-24T00:42:51;14.50;;;8.50;;
20966;SDS011;10642;50.682;18.510;2023-04-24T00:45:18;17.50;;;9.83;;
20966;SDS011;10642;50.682;18.510;2023-04-24T00:47:46;15.83;;;9.93;;
20966;SDS011;10642;50.682;18.510;2023-04-24T00:50:14;16.97;;;10.33;;
20966;SDS011;10642;50.682;18.510;2023-04-24T00:52:41;15.63;;;10.10;;
20966;SDS011;10642;50.682;18.510;2023-04-24T00:55:08;15.47;;;10.07;;
20966;SDS011;10642;50.682;18.510;2023-04-24T00:57:35;15.50;;;11.00;;
20966;SDS011;10642;50.682;18.510;2023-04-24T01:00:03;19.27;;;12.03;;
20966;SDS011;10642;50.682;18.510;2023-04-24T01:02:30;18.57;;;11.27;;
20966;SDS011;10642;50.682;18.510;2023-04-24T01:04:57;15.40;;;10.60;;
20966;SDS011;10642;50.682;18.510;2023-04-24T01:07:24;17.90;;;11.13;;
20966;SDS011;10642;50.682;18.510;2023-04-24T01:09:52;19.13;;;11.30;;
20966;SDS011;10642;50.682;18.510;2023-04-24T01:12:19;17.10;;;11.47;;
20966;SDS011;10642;50.682;18.510;2023-04-24T01:14:46;18.37;;;11.30;;
20966;SDS011;10642;50.682;18.510;2023-04-24T01:17:14;17.63;;;11.27;;
20966;SDS011;10642;50.682;18.510;2023-04-24T01:19:41;19.47;;;11.50;;
20966;SDS011;10642;50.682;18.510;2023-04-24T01:22:14;18.77;;;12.03;;
20966;SDS011;10642;50.682;18.510;2023-04-24T01:24:42;21.70;;;11.53;;
20966;SDS011;10642;50.682;18.510;2023-04-24T01:27:11;19.33;;;11.77;;
20966;SDS011;10642;50.682;18.510;2023-04-24T01:29:38;19.90;;;11.80;;
20966;SDS011;10642;50.682;18.510;2023-04-24T01:32:05;20.53;;;10.93;;
20966;SDS011;10642;50.682;18.510;2023-04-24T01:34:32;19.73;;;11.57;;
20966;SDS011;10642;50.682;18.510;2023-04-24T01:36:59;19.13;;;11.17;;
20966;SDS011;10642;50.682;18.510;2023-04-24T01:39:26;18.33;;;11.00;;
20966;SDS011;10642;50.682;18.510;2023-04-24T01:41:55;19.93;;;11.07;;
20966;SDS011;10642;50.682;18.510;2023-04-24T01:44:23;16.17;;;10.73;;
20966;SDS011;10642;50.682;18.510;2023-04-24T01:46:50;20.53;;;10.73;;
20966;SDS011;10642;50.682;18.510;2023-04-24T01:49:17;16.60;;;10.70;;
20966;SDS011;10642;50.682;18.510;2023-04-24T01:51:44;21.57;;;10.87;;
20966;SDS011;10642;50.682;18.510;2023-04-24T01:54:12;16.87;;;10.20;;
20966;SDS011;10642;50.682;18.510;2023-04-24T01:56:43;19.33;;;11.17;;
20966;SDS011;10642;50.682;18.510;2023-04-24T01:59:10;20.60;;;10.93;;
20966;SDS011;10642;50.682;18.510;2023-04-24T02:01:38;19.00;;;10.80;;
20966;SDS011;10642;50.682;18.510;2023-04-24T02:04:05;16.97;;;10.80;;
20966;SDS011;10642;50.682;18.510;2023-04-24T02:06:34;27.50;;;11.67;;
20966;SDS011;10642;50.682;18.510;2023-04-24T02:09:02;25.50;;;12.97;;
20966;SDS011;10642;50.682;18.510;2023-04-24T02:11:30;16.37;;;10.53;;
20966;SDS011;10642;50.682;18.510;2023-04-24T02:13:57;20.70;;;10.83;;
20966;SDS011;10642;50.682;18.510;2023-04-24T02:16:24;19.23;;;11.73;;
20966;SDS011;10642;50.682;18.510;2023-04-24T02:18:51;17.30;;;11.30;;
20966;SDS011;10642;50.682;18.510;2023-04-24T02:21:18;17.07;;;11.13;;
20966;SDS011;10642;50.682;18.510;2023-04-24T02:23:45;18.13;;;12.13;;
20966;SDS011;10642;50.682;18.510;2023-04-24T02:26:12;21.87;;;11.63;;
20966;SDS011;10642;50.682;18.510;2023-04-24T02:28:39;19.57;;;11.30;;
20966;SDS011;10642;50.682;18.510;2023-04-24T02:31:05;19.50;;;11.83;;
20966;SDS011;10642;50.682;18.510;2023-04-24T02:33:32;18.83;;;12.60;;
20966;SDS011;10642;50.682;18.510;2023-04-24T02:35:59;22.50;;;13.27;;
20966;SDS011;10642;50.682;18.510;2023-04-24T02:38:26;23.27;;;14.57;;
20966;SDS011;10642;50.682;18.510;2023-04-24T02:40:53;20.47;;;12.87;;
20966;SDS011;10642;50.682;18.510;2023-04-24T02:43:20;19.27;;;13.57;;
20966;SDS011;10642;50.682;18.510;2023-04-24T02:45:47;24.40;;;14.27;;
20966;SDS011;10642;50.682;18.510;2023-04-24T02:48:14;27.00;;;12.70;;
20966;SDS011;10642;50.682;18.510;2023-04-24T02:50:41;20.80;;;12.23;;
20966;SDS011;10642;50.682;18.510;2023-04-24T02:53:08;21.13;;;12.87;;
20966;SDS011;10642;50.682;18.510;2023-04-24T02:55:35;18.97;;;11.67;;
20966;SDS011;10642;50.682;18.510;2023-04-24T02:58:02;22.57;;;11.90;;
20966;SDS011;10642;50.682;18.510;2023-04-24T03:00:29;21.10;;;12.07;;
20966;SDS011;10642;50.682;18.510;2023-04-24T03:02:56;19.53;;;12.33;;
20966;SDS011;10642;50.682;18.510;2023-04-24T03:05:23;23.07;;;11.87;;
20966;SDS011;10642;50.682;18.510;2023-04-24T03:07:51;18.00;;;10.97;;
20966;SDS011;10642;50.682;18.510;2023-04-24T03:10:20;17.90;;;10.37;;
20966;SDS011;10642;50.682;18.510;2023-04-24T03:12:49;20.23;;;11.43;;
20966;SDS011;10642;50.682;18.510;2023-04-24T03:15:17;23.50;;;10.87;;
20966;SDS011;10642;50.682;18.510;2023-04-24T03:17:44;18.93;;;10.87;;
20966;SDS011;10642;50.682;18.510;2023-04-24T03:20:12;15.83;;;10.27;;
20966;SDS011;10642;50.682;18.510;2023-04-24T03:22:39;16.80;;;10.20;;
20966;SDS011;10642;50.682;18.510;2023-04-24T03:25:07;15.37;;;9.77;;
20966;SDS011;10642;50.682;18.510;2023-04-24T03:27:37;16.77;;;10.33;;
20966;SDS011;10642;50.682;18.510;2023-04-24T03:30:31;18.97;;;10.20;;
20966;SDS011;10642;50.682;18.510;2023-04-24T03:32:59;18.97;;;10.27;;
20966;SDS011;10642;50.682;18.510;2023-04-24T03:35:31;15.80;;;11.43;;
20966;SDS011;10642;50.682;18.510;2023-04-24T03:38:01;19.03;;;11.53;;
20966;SDS011;10642;50.682;18.510;2023-04-24T03:40:46;20.20;;;11.90;;
20966;SDS011;10642;50.682;18.510;2023-04-24T03:43:33;19.43;;;10.63;;
20966;SDS011;10642;50.682;18.510;2023-04-24T03:46:01;24.07;;;11.13;;
20966;SDS011;10642;50.682;18.510;2023-04-24T03:48:32;21.67;;;11.23;;
20966;SDS011;10642;50.682;18.510;2023-04-24T03:51:00;18.67;;;11.70;;
20966;SDS011;10642;50.682;18.510;2023-04-24T03:53:29;19.20;;;11.70;;
20966;SDS011;10642;50.682;18.510;2023-04-24T03:55:56;19.93;;;11.80;;
20966;SDS011;10642;50.682;18.510;2023-04-24T03:58:24;18.33;;;11.17;;
20966;SDS011;10642;50.682;18.510;2023-04-24T04:00:54;17.17;;;11.07;;
20966;SDS011;10642;50.682;18.510;2023-04-24T04:03:39;16.33;;;10.43;;
20966;SDS011;10642;50.682;18.510;2023-04-24T04:06:07;18.93;;;11.67;;
20966;SDS011;10642;50.682;18.510;2023-04-24T04:08:34;15.40;;;11.23;;
20966;SDS011;10642;50.682;18.510;2023-04-24T04:11:01;20.23;;;11.70;;
20966;SDS011;10642;50.682;18.510;2023-04-24T04:13:30;19.63;;;11.40;;
20966;SDS011;10642;50.682;18.510;2023-04-24T04:15:58;20.03;;;11.47;;
20966;SDS011;10642;50.682;18.510;2023-04-24T04:18:25;16.23;;;10.30;;
20966;SDS011;10642;50.682;18.510;2023-04-24T04:20:52;23.90;;;11.40;;
20966;SDS011;10642;50.682;18.510;2023-04-24T04:23:19;17.40;;;10.43;;
20966;SDS011;10642;50.682;18.510;2023-04-24T04:26:01;20.03;;;10.83;;
20966;SDS011;10642;50.682;18.510;2023-04-24T04:28:38;18.83;;;11.47;;
20966;SDS011;10642;50.682;18.510;2023-04-24T04:31:06;19.03;;;10.87;;
20966;SDS011;10642;50.682;18.510;2023-04-24T04:33:34;23.47;;;11.50;;
20966;SDS011;10642;50.682;18.510;2023-04-24T04:36:02;19.57;;;10.60;;
20966;SDS011;10642;50.682;18.510;2023-04-24T04:38:32;16.77;;;10.63;;
20966;SDS011;10642;50.682;18.510;2023-04-24T04:41:09;18.93;;;11.33;;
20966;SDS011;10642;50.682;18.510;2023-04-24T04:43:36;15.70;;;9.73;;
20966;SDS011;10642;50.682;18.510;2023-04-24T04:46:06;22.67;;;11.10;;
20966;SDS011;10642;50.682;18.510;2023-04-24T04:48:56;17.17;;;11.20;;
20966;SDS011;10642;50.682;18.510;2023-04-24T04:51:24;16.30;;;10.53;;
20966;SDS011;10642;50.682;18.510;2023-04-24T04:53:50;15.97;;;9.97;;
20966;SDS011;10642;50.682;18.510;2023-04-24T04:56:18;22.97;;;11.97;;
20966;SDS011;10642;50.682;18.510;2023-04-24T04:58:45;19.83;;;11.37;;
20966;SDS011;10642;50.682;18.510;2023-04-24T05:01:15;17.20;;;10.87;;
20966;SDS011;10642;50.682;18.510;2023-04-24T05:03:45;14.87;;;9.47;;
20966;SDS011;10642;50.682;18.510;2023-04-24T05:06:14;17.17;;;10.27;;
20966;SDS011;10642;50.682;18.510;2023-04-24T05:08:42;20.37;;;10.53;;
20966;SDS011;10642;50.682;18.510;2023-04-24T05:11:19;16.37;;;9.80;;
20966;SDS011;10642;50.682;18.510;2023-04-24T05:13:46;18.93;;;11.17;;
20966;SDS011;10642;50.682;18.510;2023-04-24T05:16:21;15.97;;;10.87;;
20966;SDS011;10642;50.682;18.510;2023-04-24T05:18:51;14.37;;;9.97;;
20966;SDS011;10642;50.682;18.510;2023-04-24T05:21:22;15.93;;;9.97;;
20966;SDS011;10642;50.682;18.510;2023-04-24T05:23:50;14.33;;;8.77;;
20966;SDS011;10642;50.682;18.510;2023-04-24T05:26:30;17.07;;;10.73;;
20966;SDS011;10642;50.682;18.510;2023-04-24T05:28:58;15.83;;;9.43;;
20966;SDS011;10642;50.682;18.510;2023-04-24T05:31:25;15.27;;;10.10;;
20966;SDS011;10642;50.682;18.510;2023-04-24T05:33:52;18.83;;;10.00;;
20966;SDS011;10642;50.682;18.510;2023-04-24T05:36:19;19.73;;;9.97;;
20966;SDS011;10642;50.682;18.510;2023-04-24T05:38:46;16.70;;;9.83;;
20966;SDS011;10642;50.682;18.510;2023-04-24T05:41:14;19.13;;;9.50;;
20966;SDS011;10642;50.682;18.510;2023-04-24T05:43:41;17.13;;;9.97;;
20966;SDS011;10642;50.682;18.510;2023-04-24T05:46:08;17.47;;;8.97;;
20966;SDS011;10642;50.682;18.510;2023-04-24T05:48:35;16.50;;;8.30;;
20966;SDS011;10642;50.682;18.510;2023-04-24T05:51:02;15.63;;;8.67;;
20966;SDS011;10642;50.682;18.510;2023-04-24T05:53:30;15.43;;;8.83;;
20966;SDS011;10642;50.682;18.510;2023-04-24T05:55:57;17.57;;;8.67;;
20966;SDS011;10642;50.682;18.510;2023-04-24T05:58:23;15.17;;;8.33;;
20966;SDS011;10642;50.682;18.510;2023-04-24T06:00:50;13.40;;;8.20;;
20966;SDS011;10642;50.682;18.510;2023-04-24T06:03:17;16.27;;;8.00;;
20966;SDS011;10642;50.682;18.510;2023-04-24T06:05:46;16.57;;;8.47;;
20966;SDS011;10642;50.682;18.510;2023-04-24T06:08:13;14.47;;;8.13;;
20966;SDS011;10642;50.682;18.510;2023-04-24T06:10:42;11.63;;;7.70;;
20966;SDS011;10642;50.682;18.510;2023-04-24T06:13:10;12.33;;;7.67;;
20966;SDS011;10642;50.682;18.510;2023-04-24T06:15:42;13.40;;;7.73;;
20966;SDS011;10642;50.682;18.510;2023-04-24T06:18:19;12.93;;;7.50;;
20966;SDS011;10642;50.682;18.510;2023-04-24T06:20:47;13.07;;;7.63;;
20966;SDS011;10642;50.682;18.510;2023-04-24T06:23:14;16.27;;;7.40;;
20966;SDS011;10642;50.682;18.510;2023-04-24T06:25:41;12.20;;;7.70;;
20966;SDS011;10642;50.682;18.510;2023-04-24T06:28:10;10.63;;;7.60;;
20966;SDS011;10642;50.682;18.510;2023-04-24T06:30:37;10.60;;;7.43;;
20966;SDS011;10642;50.682;18.510;2023-04-24T06:33:04;17.23;;;7.23;;
20966;SDS011;10642;50.682;18.510;2023-04-24T06:35:46;15.67;;;6.77;;
20966;SDS011;10642;50.682;18.510;2023-04-24T06:38:13;13.93;;;7.10;;
20966;SDS011;10642;50.682;18.510;2023-04-24T06:40:40;15.23;;;7.90;;
20966;SDS011;10642;50.682;18.510;2023-04-24T06:43:07;17.03;;;7.50;;
20966;SDS011;10642;50.682;18.510;2023-04-24T06:45:34;12.23;;;7.73;;
20966;SDS011;10642;50.682;18.510;2023-04-24T06:48:01;11.43;;;7.30;;
20966;SDS011;10642;50.682;18.510;2023-04-24T06:50:28;10.53;;;7.13;;
20966;SDS011;10642;50.682;18.510;2023-04-24T06:52:54;12.73;;;7.20;;
20966;SDS011;10642;50.682;18.510;2023-04-24T06:55:21;9.90;;;6.70;;
20966;SDS011;10642;50.682;18.510;2023-04-24T06:57:48;12.97;;;7.30;;
20966;SDS011;10642;50.682;18.510;2023-04-24T07:00:15;11.63;;;7.23;;
20966;SDS011;10642;50.682;18.510;2023-04-24T07:02:42;14.33;;;5.80;;
20966;SDS011;10642;50.682;18.510;2023-04-24T07:05:10;8.77;;;5.57;;
20966;SDS011;10642;50.682;18.510;2023-04-24T07:07:37;10.60;;;5.87;;
20966;SDS011;10642;50.682;18.510;2023-04-24T07:10:04;10.77;;;6.37;;
20966;SDS011;10642;50.682;18.510;2023-04-24T07:12:31;9.77;;;5.77;;
20966;SDS011;10642;50.682;18.510;2023-04-24T07:14:59;12.50;;;6.03;;
20966;SDS011;10642;50.682;18.510;2023-04-24T07:17:26;12.37;;;6.00;;
20966;SDS011;10642;50.682;18.510;2023-04-24T07:19:53;14.53;;;6.20;;
20966;SDS011;10642;50.682;18.510;2023-04-24T07:22:20;10.47;;;6.07;;
20966;SDS011;10642;50.682;18.510;2023-04-24T07:24:47;9.03;;;5.87;;
20966;SDS011;10642;50.682;18.510;2023-04-24T07:27:14;9.43;;;6.23;;
20966;SDS011;10642;50.682;18.510;2023-04-24T07:29:42;11.53;;;6.30;;
20966;SDS011;10642;50.682;18.510;2023-04-24T07:32:09;11.53;;;6.60;;
20966;SDS011;10642;50.682;18.510;2023-04-24T07:34:36;10.23;;;6.90;;
20966;SDS011;10642;50.682;18.510;2023-04-24T07:37:03;13.60;;;4.97;;
20966;SDS011;10642;50.682;18.510;2023-04-24T07:39:30;9.93;;;5.50;;
20966;SDS011;10642;50.682;18.510;2023-04-24T07:41:57;9.83;;;5.90;;
20966;SDS011;10642;50.682;18.510;2023-04-24T07:44:25;8.27;;;5.33;;
20966;SDS011;10642;50.682;18.510;2023-04-24T07:46:52;13.00;;;5.73;;
20966;SDS011;10642;50.682;18.510;2023-04-24T07:49:19;8.53;;;5.03;;
20966;SDS011;10642;50.682;18.510;2023-04-24T07:51:46;10.07;;;4.97;;
20966;SDS011;10642;50.682;18.510;2023-04-24T07:54:13;9.43;;;6.20;;
20966;SDS011;10642;50.682;18.510;2023-04-24T07:56:40;9.37;;;5.53;;
20966;SDS011;10642;50.682;18.510;2023-04-24T07:59:10;9.93;;;5.17;;
20966;SDS011;10642;50.682;18.510;2023-04-24T08:01:36;10.87;;;6.07;;
20966;SDS011;10642;50.682;18.510;2023-04-24T08:04:04;12.77;;;6.20;;
20966;SDS011;10642;50.682;18.510;2023-04-24T08:06:31;10.33;;;5.43;;
20966;SDS011;10642;50.682;18.510;2023-04-24T08:08:59;7.23;;;5.53;;
20966;SDS011;10642;50.682;18.510;2023-04-24T08:11:26;10.77;;;5.40;;
20966;SDS011;10642;50.682;18.510;2023-04-24T08:13:53;9.60;;;5.17;;
20966;SDS011;10642;50.682;18.510;2023-04-24T08:16:21;6.27;;;4.93;;
20966;SDS011;10642;50.682;18.510;2023-04-24T08:18:50;9.47;;;5.07;;
20966;SDS011;10642;50.682;18.510;2023-04-24T08:21:17;9.77;;;5.67;;
20966;SDS011;10642;50.682;18.510;2023-04-24T08:23:45;12.23;;;5.57;;
20966;SDS011;10642;50.682;18.510;2023-04-24T08:26:12;7.00;;;4.90;;
20966;SDS011;10642;50.682;18.510;2023-04-24T08:28:39;8.93;;;5.27;;
20966;SDS011;10642;50.682;18.510;2023-04-24T08:31:06;13.00;;;5.03;;
20966;SDS011;10642;50.682;18.510;2023-04-24T08:33:33;6.90;;;4.53;;
20966;SDS011;10642;50.682;18.510;2023-04-24T08:36:04;7.97;;;5.30;;
20966;SDS011;10642;50.682;18.510;2023-04-24T08:38:31;10.23;;;5.00;;
20966;SDS011;10642;50.682;18.510;2023-04-24T08:40:59;7.03;;;5.27;;
20966;SDS011;10642;50.682;18.510;2023-04-24T08:43:26;10.10;;;5.47;;
20966;SDS011;10642;50.682;18.510;2023-04-24T08:45:56;8.50;;;5.70;;
20966;SDS011;10642;50.682;18.510;2023-04-24T08:48:24;8.10;;;5.20;;
20966;SDS011;10642;50.682;18.510;2023-04-24T08:50:57;12.77;;;5.97;;
20966;SDS011;10642;50.682;18.510;2023-04-24T08:53:25;10.40;;;5.23;;
20966;SDS011;10642;50.682;18.510;2023-04-24T08:55:53;4.97;;;3.40;;
20966;SDS011;10642;50.682;18.510;2023-04-24T08:58:20;6.83;;;4.80;;
20966;SDS011;10642;50.682;18.510;2023-04-24T09:00:47;6.77;;;5.03;;
20966;SDS011;10642;50.682;18.510;2023-04-24T09:03:15;9.40;;;5.00;;
20966;SDS011;10642;50.682;18.510;2023-04-24T09:05:44;7.70;;;5.00;;
20966;SDS011;10642;50.682;18.510;2023-04-24T09:08:13;8.30;;;4.97;;
20966;SDS011;10642;50.682;18.510;2023-04-24T09:10:40;6.67;;;4.60;;
20966;SDS011;10642;50.682;18.510;2023-04-24T09:13:07;11.23;;;4.97;;
20966;SDS011;10642;50.682;18.510;2023-04-24T09:15:36;8.53;;;5.30;;
20966;SDS011;10642;50.682;18.510;2023-04-24T09:18:04;7.47;;;4.90;;
20966;SDS011;10642;50.682;18.510;2023-04-24T09:20:31;6.50;;;4.90;;
20966;SDS011;10642;50.682;18.510;2023-04-24T09:22:58;9.97;;;4.90;;
20966;SDS011;10642;50.682;18.510;2023-04-24T09:25:30;6.67;;;4.47;;
20966;SDS011;10642;50.682;18.510;2023-04-24T09:28:00;9.03;;;4.90;;
20966;SDS011;10642;50.682;18.510;2023-04-24T09:30:27;5.87;;;4.10;;
20966;SDS011;10642;50.682;18.510;2023-04-24T09:33:10;11.00;;;5.17;;
20966;SDS011;10642;50.682;18.510;2023-04-24T09:35:39;9.80;;;5.50;;
20966;SDS011;10642;50.682;18.510;2023-04-24T09:38:06;7.47;;;5.13;;
20966;SDS011;10642;50.682;18.510;2023-04-24T09:40:34;8.90;;;5.13;;
20966;SDS011;10642;50.682;18.510;2023-04-24T09:43:01;8.03;;;5.00;;
20966;SDS011;10642;50.682;18.510;2023-04-24T09:45:35;6.33;;;4.23;;
20966;SDS011;10642;50.682;18.510;2023-04-24T09:48:03;9.00;;;5.27;;
20966;SDS011;10642;50.682;18.510;2023-04-24T09:50:30;9.43;;;5.00;;
20966;SDS011;10642;50.682;18.510;2023-04-24T09:52:59;10.37;;;5.80;;
20966;SDS011;10642;50.682;18.510;2023-04-24T09:55:28;7.87;;;5.20;;
20966;SDS011;10642;50.682;18.510;2023-04-24T09:57:59;8.17;;;5.30;;
20966;SDS011;10642;50.682;18.510;2023-04-24T10:00:32;7.83;;;5.30;;
20966;SDS011;10642;50.682;18.510;2023-04-24T10:05:33;15.77;;;6.00;;
20966;SDS011;10642;50.682;18.510;2023-04-24T10:08:08;7.90;;;5.90;;
20966;SDS011;10642;50.682;18.510;2023-04-24T10:10:37;9.33;;;5.83;;
20966;SDS011;10642;50.682;18.510;2023-04-24T10:13:04;8.33;;;6.00;;
20966;SDS011;10642;50.682;18.510;2023-04-24T10:15:31;8.60;;;6.53;;
20966;SDS011;10642;50.682;18.510;2023-04-24T10:17:59;8.90;;;6.33;;
20966;SDS011;10642;50.682;18.510;2023-04-24T10:20:27;12.63;;;6.70;;
20966;SDS011;10642;50.682;18.510;2023-04-24T10:22:56;11.80;;;7.17;;
20966;SDS011;10642;50.682;18.510;2023-04-24T10:25:24;8.70;;;6.10;;
20966;SDS011;10642;50.682;18.510;2023-04-24T10:27:52;8.37;;;6.00;;
20966;SDS011;10642;50.682;18.510;2023-04-24T10:30:19;12.77;;;6.53;;
20966;SDS011;10642;50.682;18.510;2023-04-24T10:32:46;7.87;;;5.73;;
20966;SDS011;10642;50.682;18.510;2023-04-24T10:35:14;8.03;;;5.40;;
20966;SDS011;10642;50.682;18.510;2023-04-24T10:37:45;10.20;;;5.90;;
20966;SDS011;10642;50.682;18.510;2023-04-24T10:40:16;9.10;;;5.70;;
20966;SDS011;10642;50.682;18.510;2023-04-24T10:42:43;7.23;;;5.20;;
20966;SDS011;10642;50.682;18.510;2023-04-24T10:45:17;8.57;;;5.60;;
20966;SDS011;10642;50.682;18.510;2023-04-24T10:47:56;23.07;;;6.57;;
20966;SDS011;10642;50.682;18.510;2023-04-24T10:50:25;8.63;;;5.80;;
20966;SDS011;10642;50.682;18.510;2023-04-24T10:52:52;9.23;;;6.20;;
20966;SDS011;10642;50.682;18.510;2023-04-24T10:55:39;12.10;;;5.97;;
20966;SDS011;10642;50.682;18.510;2023-04-24T10:58:06;8.80;;;5.53;;
20966;SDS011;10642;50.682;18.510;2023-04-24T11:00:33;9.50;;;6.10;;
20966;SDS011;10642;50.682;18.510;2023-04-24T11:03:04;7.03;;;5.73;;
20966;SDS011;10642;50.682;18.510;2023-04-24T11:13:24;6.27;;;5.50;;
20966;SDS011;10642;50.682;18.510;2023-04-24T11:18:38;14.10;;;6.00;;
20966;SDS011;10642;50.682;18.510;2023-04-24T11:21:10;8.37;;;5.13;;
20966;SDS011;10642;50.682;18.510;2023-04-24T11:23:37;10.13;;;6.23;;
20966;SDS011;10642;50.682;18.510;2023-04-24T11:26:38;11.57;;;6.33;;
20966;SDS011;10642;50.682;18.510;2023-04-24T11:29:08;10.43;;;5.47;;
20966;SDS011;10642;50.682;18.510;2023-04-24T11:31:38;10.30;;;6.87;;
20966;SDS011;10642;50.682;18.510;2023-04-24T11:34:12;9.23;;;6.53;;
20966;SDS011;10642;50.682;18.510;2023-04-24T11:36:44;18.77;;;6.67;;
20966;SDS011;10642;50.682;18.510;2023-04-24T11:39:12;10.73;;;7.37;;
20966;SDS011;10642;50.682;18.510;2023-04-24T11:41:39;9.03;;;6.13;;
20966;SDS011;10642;50.682;18.510;2023-04-24T11:44:07;18.13;;;6.93;;
20966;SDS011;10642;50.682;18.510;2023-04-24T11:46:34;8.80;;;6.63;;
20966;SDS011;10642;50.682;18.510;2023-04-24T11:49:02;12.47;;;7.03;;
20966;SDS011;10642;50.682;18.510;2023-04-24T11:51:28;12.43;;;7.13;;
20966;SDS011;10642;50.682;18.510;2023-04-24T11:54:07;11.53;;;7.43;;
20966;SDS011;10642;50.682;18.510;2023-04-24T11:56:34;15.83;;;7.57;;
20966;SDS011;10642;50.682;18.510;2023-04-24T11:59:03;8.70;;;6.53;;
20966;SDS011;10642;50.682;18.510;2023-04-24T12:01:41;19.10;;;6.67;;
20966;SDS011;10642;50.682;18.510;2023-04-24T12:04:08;10.27;;;6.57;;
20966;SDS011;10642;50.682;18.510;2023-04-24T12:06:36;12.97;;;7.00;;
20966;SDS011;10642;50.682;18.510;2023-04-24T12:09:02;9.43;;;6.80;;
20966;SDS011;10642;50.682;18.510;2023-04-24T12:11:52;9.30;;;6.37;;
20966;SDS011;10642;50.682;18.510;2023-04-24T12:14:19;10.87;;;7.23;;
20966;SDS011;10642;50.682;18.510;2023-04-24T12:16:47;8.57;;;6.70;;
20966;SDS011;10642;50.682;18.510;2023-04-24T12:19:21;9.03;;;7.00;;
20966;SDS011;10642;50.682;18.510;2023-04-24T12:22:04;11.63;;;7.63;;
20966;SDS011;10642;50.682;18.510;2023-04-24T12:24:32;13.67;;;7.20;;
20966;SDS011;10642;50.682;18.510;2023-04-24T12:26:58;7.23;;;6.30;;
20966;SDS011;10642;50.682;18.510;2023-04-24T12:29:28;12.97;;;6.27;;
20966;SDS011;10642;50.682;18.510;2023-04-24T12:31:54;10.43;;;7.80;;
20966;SDS011;10642;50.682;18.510;2023-04-24T12:34:22;9.40;;;7.07;;
20966;SDS011;10642;50.682;18.510;2023-04-24T12:36:50;9.33;;;6.57;;
20966;SDS011;10642;50.682;18.510;2023-04-24T12:39:19;12.77;;;7.13;;
20966;SDS011;10642;50.682;18.510;2023-04-24T12:41:56;11.50;;;6.80;;
20966;SDS011;10642;50.682;18.510;2023-04-24T12:44:34;11.20;;;7.37;;
20966;SDS011;10642;50.682;18.510;2023-04-24T12:47:01;13.00;;;7.20;;
20966;SDS011;10642;50.682;18.510;2023-04-24T12:49:31;10.20;;;7.37;;
20966;SDS011;10642;50.682;18.510;2023-04-24T12:51:58;15.47;;;7.67;;
20966;SDS011;10642;50.682;18.510;2023-04-24T12:54:25;16.90;;;8.13;;
20966;SDS011;10642;50.682;18.510;2023-04-24T12:56:52;11.00;;;7.07;;
20966;SDS011;10642;50.682;18.510;2023-04-24T12:59:18;10.17;;;7.53;;
20966;SDS011;10642;50.682;18.510;2023-04-24T13:01:45;12.37;;;7.07;;
20966;SDS011;10642;50.682;18.510;2023-04-24T13:04:12;15.00;;;7.47;;
20966;SDS011;10642;50.682;18.510;2023-04-24T13:06:39;8.53;;;6.60;;
20966;SDS011;10642;50.682;18.510;2023-04-24T13:09:06;11.37;;;6.53;;
20966;SDS011;10642;50.682;18.510;2023-04-24T13:11:33;7.43;;;5.87;;
20966;SDS011;10642;50.682;18.510;2023-04-24T13:14:00;10.57;;;6.93;;
20966;SDS011;10642;50.682;18.510;2023-04-24T13:16:27;11.53;;;6.63;;
20966;SDS011;10642;50.682;18.510;2023-04-24T13:18:54;8.13;;;6.93;;
20966;SDS011;10642;50.682;18.510;2023-04-24T13:21:21;11.57;;;8.07;;
20966;SDS011;10642;50.682;18.510;2023-04-24T13:23:48;11.83;;;7.10;;
20966;SDS011;10642;50.682;18.510;2023-04-24T13:26:15;9.87;;;7.87;;
20966;SDS011;10642;50.682;18.510;2023-04-24T13:28:42;9.00;;;6.80;;
20966;SDS011;10642;50.682;18.510;2023-04-24T13:31:09;14.53;;;7.40;;
20966;SDS011;10642;50.682;18.510;2023-04-24T13:33:36;11.50;;;6.90;;
20966;SDS011;10642;50.682;18.510;2023-04-24T13:36:03;7.83;;;5.63;;
20966;SDS011;10642;50.682;18.510;2023-04-24T13:38:30;12.93;;;7.37;;
20966;SDS011;10642;50.682;18.510;2023-04-24T13:40:57;12.47;;;7.13;;
20966;SDS011;10642;50.682;18.510;2023-04-24T13:43:24;11.10;;;7.23;;
20966;SDS011;10642;50.682;18.510;2023-04-24T13:45:51;12.93;;;8.23;;
20966;SDS011;10642;50.682;18.510;2023-04-24T13:48:18;13.60;;;8.47;;
20966;SDS011;10642;50.682;18.510;2023-04-24T13:50:44;12.57;;;8.83;;
20966;SDS011;10642;50.682;18.510;2023-04-24T13:53:14;12.00;;;8.87;;
20966;SDS011;10642;50.682;18.510;2023-04-24T13:55:41;12.17;;;8.67;;
20966;SDS011;10642;50.682;18.510;2023-04-24T13:58:08;10.73;;;7.60;;
20966;SDS011;10642;50.682;18.510;2023-04-24T14:00:35;9.57;;;7.30;;
20966;SDS011;10642;50.682;18.510;2023-04-24T14:03:02;14.63;;;8.17;;
20966;SDS011;10642;50.682;18.510;2023-04-24T14:05:29;9.73;;;7.13;;
20966;SDS011;10642;50.682;18.510;2023-04-24T14:07:56;11.20;;;7.20;;
20966;SDS011;10642;50.682;18.510;2023-04-24T14:10:23;10.57;;;8.30;;
20966;SDS011;10642;50.682;18.510;2023-04-24T14:12:50;14.47;;;7.50;;
20966;SDS011;10642;50.682;18.510;2023-04-24T14:15:17;14.13;;;9.50;;
20966;SDS011;10642;50.682;18.510;2023-04-24T14:17:44;10.23;;;7.47;;
20966;SDS011;10642;50.682;18.510;2023-04-24T14:20:12;10.37;;;6.47;;
20966;SDS011;10642;50.682;18.510;2023-04-24T14:22:39;17.53;;;8.27;;
20966;SDS011;10642;50.682;18.510;2023-04-24T14:25:06;9.93;;;7.10;;
20966;SDS011;10642;50.682;18.510;2023-04-24T14:27:32;14.23;;;7.87;;
20966;SDS011;10642;50.682;18.510;2023-04-24T14:30:01;15.20;;;8.57;;
20966;SDS011;10642;50.682;18.510;2023-04-24T14:32:28;18.50;;;9.43;;
20966;SDS011;10642;50.682;18.510;2023-04-24T14:34:55;15.40;;;8.20;;
20966;SDS011;10642;50.682;18.510;2023-04-24T14:37:22;15.20;;;9.30;;
20966;SDS011;10642;50.682;18.510;2023-04-24T14:39:48;13.87;;;8.90;;
20966;SDS011;10642;50.682;18.510;2023-04-24T14:42:35;18.67;;;10.13;;